Airfield :
LOGIN :

Register | Disclaimer

   EN    FR    IT 

 










Legend :    VFR   Marginal VFR   IFR   Intensive IFR   Very Intensive IFR
Visi :
Ceiling :
>= 8 km
>= 3000ft
5 to 8 km
1000 to 3000 ft
1500m to 5 km
500 to 1000 ft
800 to 1500m
200 to 500 ft
< 800m
< 200 ft
Symbols :   Thunderstorms  Fog  Heavy snow  Heavy precipitations  Wind > 20 kt
SIGMETs :     Misc.  Thunderstorms  Icing  Turbulence  Mountain Waves  Volcanic Ashes







- Airport Elevation : 32 ft
- IATA code : LKZ


EGUL - RAF Lakenheath

CURRENT METAR :
  • 262358Z AUTO 09006KT 9999 OVC060 14/10 A2990 RMK AO2 SLP128 T01350104 10194 20135 402160086 58012

EXPIRED METARs :
  • 262258Z AUTO 11006KT 9999 OVC060 14/10 A2992 RMK AO2 SLP135 T01400103
  • 262158Z AUTO 11005KT 9999 OVC060 15/09 A2993 RMK AO2 SLP138 T01450093
  • 262058Z AUTO 11007KT 9999 OVC060 15/09 A2993 RMK AO2 SLP138 T01470086 52006

TAF TAF EGUL
Valid from the 26 at 20:00 until the 28 at 02:00 UTC


262000Z 2620/2802 10012KT 9999 SCT050 BKN060 QNH2990INS
BECMG 2716/2717 10010G15KT 8000 -RA BKN050 QNH2981INS
BECMG 2721/2722 05015G20KT 8000 -RA BKN030 QNH2975INS
BECMG 2800/2801 05015G20KT 8000 -RA BKN005 QNH2970INS TX20/2715Z TN10/2704Z
No reported NOTAMs for that airfield.



MET'MAP, your aeronautical weather chart ! - Copyright ORBIFLY December 2007 - Disclaimer

ORBIFLY MET'MAP TEAM :

Programming & Development : Alexandra Zaïnal
Concept & Development : Baudouin d'Aumeries
Co-Development & Prog : Marc-Olivier Méhu
Technical & hardware support : Manuel Goepfert

Contact : metmap@orbifly.com




SOURCES & CREDITS :

   NOAA